Savage Legacy — WDH4244 — position and weather

sailwx.info

Track history (hours):
 
Tides and Currents Weather Stations Pressure Air Temp Water Temp Dewpoint Dewpoint Depression Visibility Wind Speed Wind Dir Waves Ship Positions

Savage Legacy

Owner: Savage Inland Marine, Gibson, LA. More information available from US FCC via Universal Licensing System and Coast Guard Vessel Documentation Center.

Last reported at 2018-May-22 19:31 UTC. Time now 2018-May-22 19:52 UTC.
Position N 29°49' W 093°59'.

MMSI: 367615680.

Date/timePositionNaut miles runAvg speedWind from/ knotsBaromVisibWave heightAir tempDewpointWater temp
2018-May-22 19:31N 29°49' W 093°59'3 5.2
2018-May-22 19:01N 29°51' W 093°57'3 5.3
2018-May-22 18:30N 29°53' W 093°55'3 5.5
2018-May-22 18:01N 29°55' W 093°53'3 5.5
2018-May-22 17:30N 29°57' W 093°52'3 5.3
2018-May-22 17:01N 29°59' W 093°49'3 5.0
2018-May-22 16:28N 30°00' W 093°46'14 4.8
2018-May-22 13:32N 30°04' W 093°30'0 4.7
2018-May-22 13:30N 30°04' W 093°30'2 4.7
2018-May-22 13:01N 30°04' W 093°28'2 3.7
2018-May-22 12:30N 30°04' W 093°25'2 4.6
2018-May-22 12:01N 30°04' W 093°23'2 3.1
2018-May-22 11:30N 30°04' W 093°21'1 2.9
2018-May-22 11:01N 30°05' W 093°20'3 5.5
2018-May-22 10:30N 30°08' W 093°20'2 4.7
2018-May-22 10:01N 30°10' W 093°19'0 0.7
2018-May-22 09:30N 30°10' W 093°19'0 0.1
2018-May-22 09:01N 30°10' W 093°19'0 0.0
2018-May-22 08:31N 30°10' W 093°19'0 0.0
2018-May-22 08:01N 30°10' W 093°19'0 0.0
2018-May-22 07:31N 30°10' W 093°19'0 0.0
2018-May-22 07:01N 30°10' W 093°19'0 0.0
2018-May-22 06:31N 30°10' W 093°19'0 0.0
2018-May-22 06:01N 30°10' W 093°19'0 0.0
2018-May-22 05:31N 30°10' W 093°19'0 0.0
2018-May-22 05:00N 30°10' W 093°19'0 0.0
2018-May-22 04:30N 30°10' W 093°19'0 0.0
2018-May-22 04:01N 30°10' W 093°19'0 0.0
2018-May-22 03:31N 30°10' W 093°19'0 0.0
2018-May-22 03:01N 30°10' W 093°19'0 0.0
2018-May-22 02:30N 30°10' W 093°19'0 0.0
2018-May-22 02:00N 30°10' W 093°19'0 0.0
2018-May-22 01:31N 30°10' W 093°19'0 0.0
2018-May-22 01:00N 30°10' W 093°19'0 0.0
2018-May-22 00:30N 30°10' W 093°19'0 0.0
2018-May-22 00:01N 30°10' W 093°19'0 0.0
2018-May-21 23:30N 30°10' W 093°19'0 0.0
2018-May-21 23:01N 30°10' W 093°19'0 0.0
2018-May-21 22:30N 30°10' W 093°19'0 0.0
2018-May-21 22:01N 30°10' W 093°19'0 0.0
2018-May-21 21:31N 30°10' W 093°19'0 0.0
2018-May-21 21:01N 30°10' W 093°19'0 0.0
2018-May-21 20:31N 30°10' W 093°19'0 0.0
2018-May-21 20:01N 30°10' W 093°19'0 0.0
2018-May-21 19:31N 30°10' W 093°19'0 0.0
2018-May-21 19:01N 30°10' W 093°19'0 0.0
2018-May-21 18:31N 30°10' W 093°19'0 0.0
2018-May-21 18:01N 30°10' W 093°19'0 0.0
2018-May-21 17:30N 30°10' W 093°19'0 0.0
2018-May-21 17:01N 30°10' W 093°19'0 0.0
2018-May-21 16:31N 30°10' W 093°19'0 0.0
2018-May-21 16:00N 30°10' W 093°19'0 0.0
2018-May-21 15:07N 30°10' W 093°19'0 0.0
2018-May-21 15:01N 30°10' W 093°19'0 0.0
2018-May-21 14:30N 30°10' W 093°19'0 0.0
2018-May-21 14:01N 30°10' W 093°19'0 0.0
2018-May-21 13:30N 30°10' W 093°19'0 0.0
2018-May-21 13:01N 30°10' W 093°19'0 0.0
2018-May-21 12:30N 30°10' W 093°19'0 0.0
2018-May-21 12:00N 30°10' W 093°19'0 0.0
2018-May-21 11:30N 30°10' W 093°19'0 0.0
2018-May-21 11:01N 30°10' W 093°19'0 0.0
2018-May-21 10:30N 30°10' W 093°19'0 0.0
2018-May-21 10:01N 30°10' W 093°19'0 0.0
2018-May-21 09:31N 30°10' W 093°19'0 0.0
2018-May-21 09:00N 30°10' W 093°19'0 0.0
2018-May-21 08:30N 30°10' W 093°19'0 0.0
2018-May-21 08:01N 30°10' W 093°19'0 0.0
2018-May-21 07:31N 30°10' W 093°19'0 0.0
2018-May-21 07:01N 30°10' W 093°19'0 0.0
2018-May-21 06:31N 30°10' W 093°19'0 0.0
2018-May-21 06:01N 30°10' W 093°19'0 0.0
2018-May-21 05:31N 30°10' W 093°19'0 0.0
2018-May-21 05:00N 30°10' W 093°19'0 0.0
2018-May-21 04:31N 30°10' W 093°19'0 0.0
2018-May-21 04:00N 30°10' W 093°19'0 0.0
2018-May-21 03:30N 30°10' W 093°19'0 0.0
2018-May-21 03:00N 30°10' W 093°19'0 0.0
2018-May-21 02:31N 30°10' W 093°19'0 0.0
2018-May-21 02:01N 30°10' W 093°19'0 0.0
2018-May-21 01:31N 30°10' W 093°19'0 0.0
2018-May-21 01:01N 30°10' W 093°19'0 0.0
2018-May-21 00:30N 30°10' W 093°19'0 0.1
2018-May-21 00:01N 30°10' W 093°19'2 3.9
2018-May-20 23:30N 30°08' W 093°20'3 6.8
2018-May-20 23:01N 30°05' W 093°20'1 2.1
2018-May-20 22:30N 30°04' W 093°21'0 0.0
2018-May-20 22:01N 30°04' W 093°21'0 0.0
2018-May-20 21:30N 30°04' W 093°21'0 0.0
2018-May-20 21:01N 30°04' W 093°21'0 0.0
2018-May-20 20:31N 30°04' W 093°21'0 0.0
2018-May-20 20:00N 30°04' W 093°21'0 0.0
2018-May-20 19:30N 30°04' W 093°21'0 0.0
2018-May-20 19:01N 30°04' W 093°21'0 0.0
2018-May-20 18:31N 30°04' W 093°21'0 0.0
2018-May-20 18:00N 30°04' W 093°21'0 0.0
2018-May-20 17:30N 30°04' W 093°21'0 0.0
2018-May-20 17:01N 30°04' W 093°21'0 0.0
2018-May-20 16:30N 30°04' W 093°21'0 0.0
2018-May-20 16:01N 30°04' W 093°21'0 0.0
2018-May-20 15:31N 30°04' W 093°21'0 0.0
2018-May-20 15:01N 30°04' W 093°21'0 0.0
2018-May-20 14:30N 30°04' W 093°21'0 0.0
2018-May-20 14:00N 30°04' W 093°21'0 0.0
2018-May-20 13:31N 30°04' W 093°21'0 0.0
2018-May-20 13:00N 30°04' W 093°21'0 0.0
2018-May-20 12:30N 30°04' W 093°21'0 0.0
2018-May-20 12:00N 30°04' W 093°21'0 0.0
2018-May-20 11:30N 30°04' W 093°21'0 0.0
2018-May-20 11:00N 30°04' W 093°21'0 0.0
2018-May-20 10:30N 30°04' W 093°21'0 0.0
2018-May-20 10:00N 30°04' W 093°21'0 0.0
2018-May-20 09:30N 30°04' W 093°21'0 0.0
2018-May-20 09:00N 30°04' W 093°21'0 0.0
2018-May-20 08:30N 30°04' W 093°21'0 0.0
2018-May-20 08:00N 30°04' W 093°21'0 0.0
2018-May-20 07:30N 30°04' W 093°21'0 0.0
2018-May-20 07:00N 30°04' W 093°21'0 0.0
2018-May-20 06:30N 30°04' W 093°21'0 0.0
2018-May-20 06:00N 30°04' W 093°21'0 0.0
2018-May-20 05:30N 30°04' W 093°21'0 0.0
2018-May-20 05:00N 30°04' W 093°21'0 0.0
2018-May-20 04:30N 30°04' W 093°21'0 0.0
2018-May-20 04:00N 30°04' W 093°21'0 0.0
2018-May-20 03:30N 30°04' W 093°21'0 0.0
2018-May-20 03:00N 30°04' W 093°21'0 0.0
2018-May-20 02:30N 30°04' W 093°21'0 0.0
2018-May-20 02:00N 30°04' W 093°21'0 0.0
2018-May-20 01:30N 30°04' W 093°21'0 0.0
2018-May-20 01:00N 30°04' W 093°21'0 0.0
2018-May-20 00:30N 30°04' W 093°21'0 0.0
2018-May-20 00:00N 30°04' W 093°21'0 0.0
2018-May-19 23:30N 30°04' W 093°21'0 0.0
2018-May-19 23:00N 30°04' W 093°21'0 0.0
2018-May-19 22:30N 30°04' W 093°21'0 0.0
2018-May-19 22:00N 30°04' W 093°21'0 0.0
2018-May-19 21:30N 30°04' W 093°21'0 0.0
2018-May-19 21:00N 30°04' W 093°21'0 0.0
2018-May-19 20:30N 30°04' W 093°21'0 0.0
2018-May-19 20:00N 30°04' W 093°21'0 0.0
2018-May-19 19:30N 30°04' W 093°21'0 0.0
2018-May-19 19:00N 30°04' W 093°21'0 0.0
2018-May-19 18:29N 30°04' W 093°21'0 0.0
2018-May-19 18:00N 30°04' W 093°21'1 1.6
2018-May-19 17:30N 30°04' W 093°21'1 1.6
2018-May-19 17:00N 30°04' W 093°21'0 0.0
2018-May-19 16:30N 30°04' W 093°21'0 0.0
2018-May-19 16:00N 30°04' W 093°21'0 0.0
2018-May-19 15:30N 30°04' W 093°21'0 0.0
2018-May-19 15:00N 30°04' W 093°21'0 0.0
2018-May-19 14:30N 30°04' W 093°21'0 0.0
2018-May-19 14:00N 30°04' W 093°21'0 0.0
2018-May-19 13:30N 30°04' W 093°21'0 0.0
2018-May-19 13:00N 30°04' W 093°21'0 0.0
2018-May-19 12:30N 30°04' W 093°21'0 0.0
2018-May-19 12:00N 30°04' W 093°21'0 0.0
2018-May-19 11:30N 30°04' W 093°21'0 0.0
2018-May-19 11:00N 30°04' W 093°21'0 0.0
2018-May-19 10:30N 30°04' W 093°21'0 0.0
2018-May-19 10:00N 30°04' W 093°21'0 0.0
2018-May-19 09:30N 30°04' W 093°21'0 0.0
2018-May-19 09:00N 30°04' W 093°21'0 0.0
2018-May-19 08:29N 30°04' W 093°21'0 0.0
2018-May-19 08:00N 30°04' W 093°21'0 0.0
2018-May-19 07:30N 30°04' W 093°21'0 0.0
2018-May-19 07:00N 30°04' W 093°21'0 0.0
2018-May-19 06:30N 30°04' W 093°21'0 0.0
2018-May-19 06:00N 30°04' W 093°21'0 0.0
2018-May-19 05:30N 30°04' W 093°21'0 0.0
2018-May-19 05:00N 30°04' W 093°21'0 0.0
2018-May-19 04:30N 30°04' W 093°21'0 0.0
2018-May-19 04:00N 30°04' W 093°21'0 0.0
2018-May-19 03:30N 30°04' W 093°21'0 0.0
2018-May-19 03:00N 30°04' W 093°21'0 0.0
2018-May-19 02:30N 30°04' W 093°21'0 0.0
2018-May-19 02:00N 30°04' W 093°21'1 2.3
2018-May-19 01:30N 30°04' W 093°22'3 6.5
2018-May-19 01:00N 30°04' W 093°25'16 7.0
2018-May-18 22:46N 30°03' W 093°43'2 7.4
2018-May-18 22:30N 30°01' W 093°44'4 7.5
2018-May-18 21:59N 29°59' W 093°48'3 7.1
2018-May-18 21:30N 29°57' W 093°52'4 8.3
2018-May-18 21:00N 29°54' W 093°54'4 8.4
2018-May-18 20:30N 29°51' W 093°57'2 3.8
2018-May-18 20:00N 29°49' W 093°59'0 0.0
2018-May-18 19:30N 29°49' W 093°59'0 0.0
2018-May-18 19:00N 29°49' W 093°59'2 3.1
2018-May-18 18:30N 29°48' W 094°00'4 7.5
2018-May-18 18:00N 29°46' W 094°03'4 7.3
2018-May-18 17:30N 29°43' W 094°07'4 7.1
2018-May-18 17:00N 29°41' W 094°10'21 4.5
2018-May-18 12:13N 29°31' W 094°31'0 0.0
2018-May-18 12:00N 29°31' W 094°31'2 2.8
2018-May-18 11:16N 29°30' W 094°33'1 5.5
2018-May-18 11:00N 29°29' W 094°35'3 6.0
2018-May-18 10:30N 29°28' W 094°38'4 6.2
2018-May-18 09:56N 29°27' W 094°42'3 6.3
2018-May-18 09:30N 29°25' W 094°44'0 0.1
2018-May-18 09:00N 29°25' W 094°44'0 0.1
2018-May-18 08:30N 29°25' W 094°44'0 0.1
2018-May-18 08:00N 29°25' W 094°44'0 0.6
2018-May-18 07:28N 29°25' W 094°44'3 5.5
2018-May-18 07:00N 29°23' W 094°46'3 6.1
2018-May-18 06:29N 29°21' W 094°49'3 7.0
2018-May-18 06:00N 29°19' W 094°52'3 6.6
2018-May-18 05:30N 29°17' W 094°56'3 6.0
2018-May-18 05:00N 29°16' W 094°59'2 4.9
2018-May-18 04:30N 29°15' W 095°01'3 5.8
2018-May-18 04:00N 29°12' W 095°03'3 6.0
2018-May-18 03:30N 29°11' W 095°06'3 5.3
2018-May-18 02:59N 29°09' W 095°08'3 5.9
2018-May-18 02:30N 29°08' W 095°11'4 6.1
2018-May-18 01:54N 29°04' W 095°13'5 5.8
2018-May-18 01:04N 28°60' W 095°15'1 6.0
2018-May-18 00:54N 28°59' W 095°16'72 3.4
2018-May-17 03:36N 28°25' W 096°28'0 0.2
2018-May-17 03:27N 28°25' W 096°28'3 4.7
2018-May-17 02:54N 28°24' W 096°31'3 5.7
2018-May-17 02:19N 28°22' W 096°34'  
Track history (hours):
 
Tides and Currents Weather Stations Pressure Air Temp Water Temp Dewpoint Dewpoint Depression Visibility Wind Speed Wind Dir Waves Ship Positions

Savage Legacy

Owner: Savage Inland Marine, Gibson, LA. More information available from US FCC via Universal Licensing System and Coast Guard Vessel Documentation Center.

Last reported at 2018-May-22 19:31 UTC. Time now 2018-May-22 19:52 UTC.
Position N 29°49' W 093°59'.

MMSI: 367615680.

Date/timePositionNaut miles runAvg speedWind from/ knotsBaromVisibWave heightAir tempDewpointWater temp
2018-May-22 19:31N 29°49' W 093°59'3 5.2
2018-May-22 19:01N 29°51' W 093°57'3 5.3
2018-May-22 18:30N 29°53' W 093°55'3 5.5
2018-May-22 18:01N 29°55' W 093°53'3 5.5
2018-May-22 17:30N 29°57' W 093°52'3 5.3
2018-May-22 17:01N 29°59' W 093°49'3 5.0
2018-May-22 16:28N 30°00' W 093°46'14 4.8
2018-May-22 13:32N 30°04' W 093°30'0 4.7
2018-May-22 13:30N 30°04' W 093°30'2 4.7
2018-May-22 13:01N 30°04' W 093°28'2 3.7
2018-May-22 12:30N 30°04' W 093°25'2 4.6
2018-May-22 12:01N 30°04' W 093°23'2 3.1
2018-May-22 11:30N 30°04' W 093°21'1 2.9
2018-May-22 11:01N 30°05' W 093°20'3 5.5
2018-May-22 10:30N 30°08' W 093°20'2 4.7
2018-May-22 10:01N 30°10' W 093°19'0 0.7
2018-May-22 09:30N 30°10' W 093°19'0 0.1
2018-May-22 09:01N 30°10' W 093°19'0 0.0
2018-May-22 08:31N 30°10' W 093°19'0 0.0
2018-May-22 08:01N 30°10' W 093°19'0 0.0
2018-May-22 07:31N 30°10' W 093°19'0 0.0
2018-May-22 07:01N 30°10' W 093°19'0 0.0
2018-May-22 06:31N 30°10' W 093°19'0 0.0
2018-May-22 06:01N 30°10' W 093°19'0 0.0
2018-May-22 05:31N 30°10' W 093°19'0 0.0
2018-May-22 05:00N 30°10' W 093°19'0 0.0
2018-May-22 04:30N 30°10' W 093°19'0 0.0
2018-May-22 04:01N 30°10' W 093°19'0 0.0
2018-May-22 03:31N 30°10' W 093°19'0 0.0
2018-May-22 03:01N 30°10' W 093°19'0 0.0
2018-May-22 02:30N 30°10' W 093°19'0 0.0
2018-May-22 02:00N 30°10' W 093°19'0 0.0
2018-May-22 01:31N 30°10' W 093°19'0 0.0
2018-May-22 01:00N 30°10' W 093°19'0 0.0
2018-May-22 00:30N 30°10' W 093°19'0 0.0
2018-May-22 00:01N 30°10' W 093°19'0 0.0
2018-May-21 23:30N 30°10' W 093°19'0 0.0
2018-May-21 23:01N 30°10' W 093°19'0 0.0
2018-May-21 22:30N 30°10' W 093°19'0 0.0
2018-May-21 22:01N 30°10' W 093°19'0 0.0
2018-May-21 21:31N 30°10' W 093°19'0 0.0
2018-May-21 21:01N 30°10' W 093°19'0 0.0
2018-May-21 20:31N 30°10' W 093°19'0 0.0
2018-May-21 20:01N 30°10' W 093°19'0 0.0
2018-May-21 19:31N 30°10' W 093°19'0 0.0
2018-May-21 19:01N 30°10' W 093°19'0 0.0
2018-May-21 18:31N 30°10' W 093°19'0 0.0
2018-May-21 18:01N 30°10' W 093°19'0 0.0
2018-May-21 17:30N 30°10' W 093°19'0 0.0
2018-May-21 17:01N 30°10' W 093°19'0 0.0
2018-May-21 16:31N 30°10' W 093°19'0 0.0
2018-May-21 16:00N 30°10' W 093°19'0 0.0
2018-May-21 15:07N 30°10' W 093°19'0 0.0
2018-May-21 15:01N 30°10' W 093°19'0 0.0
2018-May-21 14:30N 30°10' W 093°19'0 0.0
2018-May-21 14:01N 30°10' W 093°19'0 0.0
2018-May-21 13:30N 30°10' W 093°19'0 0.0
2018-May-21 13:01N 30°10' W 093°19'0 0.0
2018-May-21 12:30N 30°10' W 093°19'0 0.0
2018-May-21 12:00N 30°10' W 093°19'0 0.0
2018-May-21 11:30N 30°10' W 093°19'0 0.0
2018-May-21 11:01N 30°10' W 093°19'0 0.0
2018-May-21 10:30N 30°10' W 093°19'0 0.0
2018-May-21 10:01N 30°10' W 093°19'0 0.0
2018-May-21 09:31N 30°10' W 093°19'0 0.0
2018-May-21 09:00N 30°10' W 093°19'0 0.0
2018-May-21 08:30N 30°10' W 093°19'0 0.0
2018-May-21 08:01N 30°10' W 093°19'0 0.0
2018-May-21 07:31N 30°10' W 093°19'0 0.0
2018-May-21 07:01N 30°10' W 093°19'0 0.0
2018-May-21 06:31N 30°10' W 093°19'0 0.0
2018-May-21 06:01N 30°10' W 093°19'0 0.0
2018-May-21 05:31N 30°10' W 093°19'0 0.0
2018-May-21 05:00N 30°10' W 093°19'0 0.0
2018-May-21 04:31N 30°10' W 093°19'0 0.0
2018-May-21 04:00N 30°10' W 093°19'0 0.0
2018-May-21 03:30N 30°10' W 093°19'0 0.0
2018-May-21 03:00N 30°10' W 093°19'0 0.0
2018-May-21 02:31N 30°10' W 093°19'0 0.0
2018-May-21 02:01N 30°10' W 093°19'0 0.0
2018-May-21 01:31N 30°10' W 093°19'0 0.0
2018-May-21 01:01N 30°10' W 093°19'0 0.0
2018-May-21 00:30N 30°10' W 093°19'0 0.1
2018-May-21 00:01N 30°10' W 093°19'2 3.9
2018-May-20 23:30N 30°08' W 093°20'3 6.8
2018-May-20 23:01N 30°05' W 093°20'1 2.1
2018-May-20 22:30N 30°04' W 093°21'0 0.0
2018-May-20 22:01N 30°04' W 093°21'0 0.0
2018-May-20 21:30N 30°04' W 093°21'0 0.0
2018-May-20 21:01N 30°04' W 093°21'0 0.0
2018-May-20 20:31N 30°04' W 093°21'0 0.0
2018-May-20 20:00N 30°04' W 093°21'0 0.0
2018-May-20 19:30N 30°04' W 093°21'0 0.0
2018-May-20 19:01N 30°04' W 093°21'0 0.0
2018-May-20 18:31N 30°04' W 093°21'0 0.0
2018-May-20 18:00N 30°04' W 093°21'0 0.0
2018-May-20 17:30N 30°04' W 093°21'0 0.0
2018-May-20 17:01N 30°04' W 093°21'0 0.0
2018-May-20 16:30N 30°04' W 093°21'0 0.0
2018-May-20 16:01N 30°04' W 093°21'0 0.0
2018-May-20 15:31N 30°04' W 093°21'0 0.0
2018-May-20 15:01N 30°04' W 093°21'0 0.0
2018-May-20 14:30N 30°04' W 093°21'0 0.0
2018-May-20 14:00N 30°04' W 093°21'0 0.0
2018-May-20 13:31N 30°04' W 093°21'0 0.0
2018-May-20 13:00N 30°04' W 093°21'0 0.0
2018-May-20 12:30N 30°04' W 093°21'0 0.0
2018-May-20 12:00N 30°04' W 093°21'0 0.0
2018-May-20 11:30N 30°04' W 093°21'0 0.0
2018-May-20 11:00N 30°04' W 093°21'0 0.0
2018-May-20 10:30N 30°04' W 093°21'0 0.0
2018-May-20 10:00N 30°04' W 093°21'0 0.0
2018-May-20 09:30N 30°04' W 093°21'0 0.0
2018-May-20 09:00N 30°04' W 093°21'0 0.0
2018-May-20 08:30N 30°04' W 093°21'0 0.0
2018-May-20 08:00N 30°04' W 093°21'0 0.0
2018-May-20 07:30N 30°04' W 093°21'0 0.0
2018-May-20 07:00N 30°04' W 093°21'0 0.0
2018-May-20 06:30N 30°04' W 093°21'0 0.0
2018-May-20 06:00N 30°04' W 093°21'0 0.0
2018-May-20 05:30N 30°04' W 093°21'0 0.0
2018-May-20 05:00N 30°04' W 093°21'0 0.0
2018-May-20 04:30N 30°04' W 093°21'0 0.0
2018-May-20 04:00N 30°04' W 093°21'0 0.0
2018-May-20 03:30N 30°04' W 093°21'0 0.0
2018-May-20 03:00N 30°04' W 093°21'0 0.0
2018-May-20 02:30N 30°04' W 093°21'0 0.0
2018-May-20 02:00N 30°04' W 093°21'0 0.0
2018-May-20 01:30N 30°04' W 093°21'0 0.0
2018-May-20 01:00N 30°04' W 093°21'0 0.0
2018-May-20 00:30N 30°04' W 093°21'0 0.0
2018-May-20 00:00N 30°04' W 093°21'0 0.0
2018-May-19 23:30N 30°04' W 093°21'0 0.0
2018-May-19 23:00N 30°04' W 093°21'0 0.0
2018-May-19 22:30N 30°04' W 093°21'0 0.0
2018-May-19 22:00N 30°04' W 093°21'0 0.0
2018-May-19 21:30N 30°04' W 093°21'0 0.0
2018-May-19 21:00N 30°04' W 093°21'0 0.0
2018-May-19 20:30N 30°04' W 093°21'0 0.0
2018-May-19 20:00N 30°04' W 093°21'0 0.0
2018-May-19 19:30N 30°04' W 093°21'0 0.0
2018-May-19 19:00N 30°04' W 093°21'0 0.0
2018-May-19 18:29N 30°04' W 093°21'0 0.0
2018-May-19 18:00N 30°04' W 093°21'1 1.6
2018-May-19 17:30N 30°04' W 093°21'1 1.6
2018-May-19 17:00N 30°04' W 093°21'0 0.0
2018-May-19 16:30N 30°04' W 093°21'0 0.0
2018-May-19 16:00N 30°04' W 093°21'0 0.0
2018-May-19 15:30N 30°04' W 093°21'0 0.0
2018-May-19 15:00N 30°04' W 093°21'0 0.0
2018-May-19 14:30N 30°04' W 093°21'0 0.0
2018-May-19 14:00N 30°04' W 093°21'0 0.0
2018-May-19 13:30N 30°04' W 093°21'0 0.0
2018-May-19 13:00N 30°04' W 093°21'0 0.0
2018-May-19 12:30N 30°04' W 093°21'0 0.0
2018-May-19 12:00N 30°04' W 093°21'0 0.0
2018-May-19 11:30N 30°04' W 093°21'0 0.0
2018-May-19 11:00N 30°04' W 093°21'0 0.0
2018-May-19 10:30N 30°04' W 093°21'0 0.0
2018-May-19 10:00N 30°04' W 093°21'0 0.0
2018-May-19 09:30N 30°04' W 093°21'0 0.0
2018-May-19 09:00N 30°04' W 093°21'0 0.0
2018-May-19 08:29N 30°04' W 093°21'0 0.0
2018-May-19 08:00N 30°04' W 093°21'0 0.0
2018-May-19 07:30N 30°04' W 093°21'0 0.0
2018-May-19 07:00N 30°04' W 093°21'0 0.0
2018-May-19 06:30N 30°04' W 093°21'0 0.0
2018-May-19 06:00N 30°04' W 093°21'0 0.0
2018-May-19 05:30N 30°04' W 093°21'0 0.0
2018-May-19 05:00N 30°04' W 093°21'0 0.0
2018-May-19 04:30N 30°04' W 093°21'0 0.0
2018-May-19 04:00N 30°04' W 093°21'0 0.0
2018-May-19 03:30N 30°04' W 093°21'0 0.0
2018-May-19 03:00N 30°04' W 093°21'0 0.0
2018-May-19 02:30N 30°04' W 093°21'0 0.0
2018-May-19 02:00N 30°04' W 093°21'1 2.3
2018-May-19 01:30N 30°04' W 093°22'3 6.5
2018-May-19 01:00N 30°04' W 093°25'16 7.0
2018-May-18 22:46N 30°03' W 093°43'2 7.4
2018-May-18 22:30N 30°01' W 093°44'4 7.5
2018-May-18 21:59N 29°59' W 093°48'3 7.1
2018-May-18 21:30N 29°57' W 093°52'4 8.3
2018-May-18 21:00N 29°54' W 093°54'4 8.4
2018-May-18 20:30N 29°51' W 093°57'2 3.8
2018-May-18 20:00N 29°49' W 093°59'0 0.0
2018-May-18 19:30N 29°49' W 093°59'0 0.0
2018-May-18 19:00N 29°49' W 093°59'2 3.1
2018-May-18 18:30N 29°48' W 094°00'4 7.5
2018-May-18 18:00N 29°46' W 094°03'4 7.3
2018-May-18 17:30N 29°43' W 094°07'4 7.1
2018-May-18 17:00N 29°41' W 094°10'21 4.5
2018-May-18 12:13N 29°31' W 094°31'0 0.0
2018-May-18 12:00N 29°31' W 094°31'2 2.8
2018-May-18 11:16N 29°30' W 094°33'1 5.5
2018-May-18 11:00N 29°29' W 094°35'3 6.0
2018-May-18 10:30N 29°28' W 094°38'4 6.2
2018-May-18 09:56N 29°27' W 094°42'3 6.3
2018-May-18 09:30N 29°25' W 094°44'0 0.1
2018-May-18 09:00N 29°25' W 094°44'0 0.1
2018-May-18 08:30N 29°25' W 094°44'0 0.1
2018-May-18 08:00N 29°25' W 094°44'0 0.6
2018-May-18 07:28N 29°25' W 094°44'3 5.5
2018-May-18 07:00N 29°23' W 094°46'3 6.1
2018-May-18 06:29N 29°21' W 094°49'3 7.0
2018-May-18 06:00N 29°19' W 094°52'3 6.6
2018-May-18 05:30N 29°17' W 094°56'3 6.0
2018-May-18 05:00N 29°16' W 094°59'2 4.9
2018-May-18 04:30N 29°15' W 095°01'3 5.8
2018-May-18 04:00N 29°12' W 095°03'3 6.0
2018-May-18 03:30N 29°11' W 095°06'3 5.3
2018-May-18 02:59N 29°09' W 095°08'3 5.9
2018-May-18 02:30N 29°08' W 095°11'4 6.1
2018-May-18 01:54N 29°04' W 095°13'5 5.8
2018-May-18 01:04N 28°60' W 095°15'1 6.0
2018-May-18 00:54N 28°59' W 095°16'72 3.4
2018-May-17 03:36N 28°25' W 096°28'0 0.2
2018-May-17 03:27N 28°25' W 096°28'3 4.7
2018-May-17 02:54N 28°24' W 096°31'3 5.7
2018-May-17 02:19N 28°22' W 096°34'  

Dump ship's entire track history